createdAt,value
2022-11-27T00:03:23.772Z,39.4
2022-11-27T00:08:24.176Z,39.4
2022-11-27T00:13:24.502Z,39.4
2022-11-27T00:18:24.838Z,39.3
2022-11-27T00:23:25.160Z,39.2
2022-11-27T00:28:25.475Z,39.2
2022-11-27T00:33:25.996Z,39.1
2022-11-27T00:38:26.295Z,39.1
2022-11-27T00:43:26.825Z,39.1
2022-11-27T00:48:27.138Z,39
2022-11-27T00:53:27.494Z,38.9
2022-11-27T00:58:28.005Z,38.9
2022-11-27T01:03:28.548Z,38.8
2022-11-27T01:08:28.870Z,38.8
2022-11-27T01:13:29.176Z,38.7
2022-11-27T01:18:29.714Z,38.7
2022-11-27T01:23:30.244Z,38.6
2022-11-27T01:28:30.814Z,38.6
2022-11-27T01:33:31.338Z,38.6
2022-11-27T01:38:31.640Z,38.5
2022-11-27T01:43:31.935Z,38.4
2022-11-27T01:48:32.248Z,38.4
2022-11-27T01:53:32.761Z,38.4
2022-11-27T01:58:33.283Z,38.3
2022-11-27T02:03:33.792Z,38.3
2022-11-27T02:08:34.109Z,38.2
2022-11-27T02:13:34.648Z,38.2
2022-11-27T02:18:34.906Z,38.1
2022-11-27T02:23:35.184Z,38.1
2022-11-27T02:28:35.419Z,38.1
2022-11-27T02:33:35.683Z,38
2022-11-27T02:38:35.962Z,38
2022-11-27T02:43:36.365Z,37.9
2022-11-27T02:48:36.632Z,37.9
2022-11-27T02:53:36.851Z,37.9
2022-11-27T02:58:37.328Z,37.8
2022-11-27T03:03:37.701Z,37.8
2022-11-27T03:08:37.923Z,37.7
2022-11-27T03:13:38.150Z,37.7
2022-11-27T03:18:38.582Z,37.7
2022-11-27T03:23:39.219Z,37.6
2022-11-27T03:28:39.665Z,37.6
2022-11-27T03:33:39.912Z,37.6
2022-11-27T03:38:40.133Z,37.5
2022-11-27T03:43:40.493Z,37.4
2022-11-27T03:48:40.729Z,37.4
2022-11-27T03:53:40.967Z,37.4
2022-11-27T03:58:41.179Z,37.4
2022-11-27T04:03:41.581Z,37.3
2022-11-27T04:08:41.872Z,37.2
2022-11-27T04:13:42.306Z,37.2
2022-11-27T04:18:42.761Z,37.2
2022-11-27T04:23:43.338Z,37.2
2022-11-27T04:28:43.538Z,37.1
2022-11-27T04:33:43.982Z,37.1
2022-11-27T04:38:44.193Z,37.1
2022-11-27T04:43:44.733Z,37
2022-11-27T04:48:44.955Z,37
2022-11-27T04:53:45.172Z,36.9
2022-11-27T04:58:45.456Z,36.9
2022-11-27T05:03:45.822Z,36.9
2022-11-27T05:08:46.039Z,36.9
2022-11-27T05:13:46.515Z,36.8
2022-11-27T05:18:46.748Z,36.8
2022-11-27T05:23:47.180Z,36.7
2022-11-27T05:28:47.407Z,36.7
2022-11-27T05:33:47.876Z,36.7
2022-11-27T05:38:48.072Z,36.7
2022-11-27T05:43:48.423Z,36.6
2022-11-27T05:48:48.660Z,36.6
2022-11-27T05:53:49.116Z,36.6
2022-11-27T05:58:49.346Z,36.6
2022-11-27T06:03:49.796Z,36.5
2022-11-27T06:08:50.303Z,36.5
2022-11-27T06:13:50.541Z,36.4
2022-11-27T06:18:50.749Z,36.4
2022-11-27T06:23:51.097Z,36.4
2022-11-27T06:28:51.558Z,36.3
2022-11-27T06:33:51.776Z,36.3
2022-11-27T06:38:51.969Z,36.2
2022-11-27T06:43:52.541Z,36.2
2022-11-27T06:48:52.767Z,36.2
2022-11-27T06:53:52.999Z,36.2
2022-11-27T06:58:53.238Z,36.1
2022-11-27T07:03:53.576Z,36.1
2022-11-27T07:08:53.812Z,36.1
2022-11-27T07:13:54.250Z,36.1
2022-11-27T07:18:54.687Z,36.1
2022-11-27T07:23:55.254Z,36
2022-11-27T07:28:55.766Z,36
2022-11-27T07:33:55.985Z,35.9
2022-11-27T07:38:56.435Z,35.9
2022-11-27T07:43:56.795Z,35.9
2022-11-27T07:48:57.030Z,35.9
2022-11-27T07:53:57.503Z,35.9
2022-11-27T07:58:57.729Z,35.8
2022-11-27T08:03:58.345Z,35.8
2022-11-27T08:08:58.582Z,35.7
2022-11-27T08:13:59.048Z,35.7
2022-11-27T08:18:59.496Z,35.7
2022-11-27T08:24:00.051Z,35.7
2022-11-27T08:29:00.273Z,35.6
2022-11-27T08:34:00.727Z,35.6
2022-11-27T08:39:01.172Z,35.6
2022-11-27T08:44:03.562Z,35.6
2022-11-27T08:49:04.978Z,35.6
2022-11-27T08:54:05.444Z,35.5
2022-11-27T08:59:06.054Z,35.5
2022-11-27T09:04:06.313Z,35.4
2022-11-27T09:09:06.781Z,35.4
2022-11-27T09:14:07.227Z,35.4
2022-11-27T09:19:07.542Z,35.1
2022-11-27T09:24:07.989Z,34.9
2022-11-27T09:29:08.170Z,34.8
2022-11-27T09:34:08.358Z,34.8
2022-11-27T09:39:08.884Z,34.8
2022-11-27T09:44:09.283Z,34.7
2022-11-27T09:49:11.143Z,34.7
2022-11-27T09:54:11.664Z,34.7
2022-11-27T09:59:12.080Z,34.6
2022-11-27T10:04:12.242Z,34.4
2022-11-27T10:09:12.667Z,34.2
2022-11-27T10:14:19.174Z,34.2
2022-11-27T10:19:21.399Z,34.2
2022-11-27T10:24:23.463Z,34.2
2022-11-27T10:29:25.517Z,34.2
2022-11-27T10:34:27.683Z,34.1
2022-11-27T10:39:29.707Z,34.1
2022-11-27T10:44:31.527Z,34.1
2022-11-27T10:49:33.700Z,34.1
2022-11-27T10:54:35.724Z,34
2022-11-27T10:59:36.182Z,34
2022-11-27T11:04:38.230Z,34
2022-11-27T11:09:54.882Z,33.9
2022-11-27T11:14:56.956Z,33.9
2022-11-27T11:19:59.108Z,33.9
2022-11-27T11:25:00.901Z,33.9
2022-11-27T11:30:02.730Z,33.9
2022-11-27T11:35:04.999Z,33.8
2022-11-27T11:40:08.968Z,33.8
2022-11-27T11:45:12.615Z,33.8
2022-11-27T11:50:14.796Z,33.7
2022-11-27T11:55:16.603Z,33.7
2022-11-27T12:00:18.642Z,33.7
2022-11-27T12:05:20.840Z,33.7
2022-11-27T12:10:22.902Z,33.7
2022-11-27T12:15:24.970Z,33.7
2022-11-27T12:20:26.924Z,33.7
2022-11-27T12:25:28.992Z,33.6
2022-11-27T12:30:30.781Z,33.6
2022-11-27T12:35:32.924Z,33.6
2022-11-27T12:40:34.736Z,33.6
2022-11-27T12:45:36.584Z,33.6
2022-11-27T12:50:38.503Z,33.5
2022-11-27T12:55:40.549Z,33.4
2022-11-27T13:00:42.411Z,34.9
2022-11-27T13:05:43.045Z,37.8
2022-11-27T13:10:43.357Z,40.2
2022-11-27T13:15:43.961Z,42.7
2022-11-27T13:20:47.157Z,43.6
2022-11-27T13:25:48.860Z,44.6
2022-11-27T13:30:49.351Z,44.9
2022-11-27T13:35:50.053Z,44.9
2022-11-27T13:40:50.907Z,44.8
2022-11-27T13:45:51.447Z,45.3
2022-11-27T13:50:52.205Z,45.7
2022-11-27T13:55:52.949Z,46.1
2022-11-27T14:00:53.867Z,46.9
2022-11-27T14:05:54.462Z,47
2022-11-27T14:10:55.227Z,47
2022-11-27T14:15:55.932Z,46.9
2022-11-27T14:20:56.761Z,46.9
2022-11-27T14:25:57.525Z,46.9
2022-11-27T14:31:04.357Z,46.9
2022-11-27T14:36:05.064Z,47.1
2022-11-27T14:41:05.614Z,47.5
2022-11-27T14:46:06.167Z,47.7
2022-11-27T14:51:06.966Z,48.3
2022-11-27T14:56:07.905Z,48.3
2022-11-27T15:01:08.531Z,48.4
2022-11-27T15:06:09.376Z,48.1
2022-11-27T15:11:10.336Z,48.5
2022-11-27T15:16:10.976Z,48.4
2022-11-27T15:21:11.937Z,48.4
2022-11-27T15:26:16.165Z,49
2022-11-27T15:31:18.459Z,49.1
2022-11-27T15:36:19.372Z,49.1
2022-11-27T15:41:20.348Z,48.9
2022-11-27T15:46:21.036Z,48.5
2022-11-27T15:51:21.691Z,47.4
2022-11-27T15:56:22.195Z,44.2
2022-11-27T16:01:22.846Z,43.3
2022-11-27T16:06:23.534Z,42.9
2022-11-27T16:11:24.187Z,42.7
2022-11-27T16:16:24.904Z,42
2022-11-27T16:21:29.376Z,39.2
2022-11-27T16:26:30.259Z,38.4
2022-11-27T16:31:30.628Z,38.1
2022-11-27T16:36:31.044Z,37.6
2022-11-27T16:41:31.290Z,37.3
2022-11-27T16:46:31.754Z,37.2
2022-11-27T16:51:32.193Z,37.1
2022-11-27T16:56:32.541Z,36.9
2022-11-27T17:01:32.914Z,36.9
2022-11-27T17:06:33.432Z,36.7
2022-11-27T17:11:33.968Z,36.6
2022-11-27T17:16:34.363Z,36.2
2022-11-27T17:21:34.857Z,35.9
2022-11-27T17:26:35.102Z,35.9
2022-11-27T17:31:35.653Z,35.8
2022-11-27T17:36:37.278Z,35.7
2022-11-27T17:41:37.999Z,35.7
2022-11-27T17:46:38.440Z,35.2
2022-11-27T17:51:39.033Z,35
2022-11-27T17:56:39.442Z,34.9
2022-11-27T18:01:39.678Z,34.9
2022-11-27T18:06:39.905Z,34.8
2022-11-27T18:11:40.187Z,34.7
2022-11-27T18:16:40.392Z,34.7
2022-11-27T18:21:42.458Z,34.7
2022-11-27T18:32:19.364Z,34.6
2022-11-27T18:37:19.568Z,34.6
2022-11-27T18:42:19.726Z,34.5
2022-11-27T18:47:20.140Z,34.5
2022-11-27T18:52:25.490Z,34.4
2022-11-27T18:57:27.667Z,34.4
2022-11-27T19:02:28.104Z,34.4
2022-11-27T19:07:30.210Z,34.3
2022-11-27T19:12:30.781Z,34.3
2022-11-27T19:17:32.517Z,34.2
2022-11-27T19:22:34.486Z,34.2
2022-11-27T19:27:35.021Z,34.2
2022-11-27T19:32:36.832Z,34.2
2022-11-27T19:37:38.883Z,34.1
2022-11-27T19:42:41.082Z,34.1
2022-11-27T19:47:43.101Z,34.1
2022-11-27T19:52:45.119Z,34
2022-11-27T19:57:45.663Z,34
2022-11-27T20:02:45.934Z,33.9
2022-11-27T20:07:48.071Z,33.8
2022-11-27T20:12:50.074Z,33.4
2022-11-27T20:17:52.110Z,33.2
2022-11-27T20:22:53.930Z,33.2
2022-11-27T20:27:56.077Z,33.1
2022-11-27T20:32:57.881Z,33.1
2022-11-27T20:37:59.650Z,33.1
2022-11-27T20:43:01.847Z,32.9
2022-11-27T20:48:03.878Z,32.8
2022-11-27T20:53:05.904Z,32.8
2022-11-27T20:58:08.023Z,32.8
2022-11-27T21:03:09.798Z,32.7
2022-11-27T21:08:11.833Z,32.7
2022-11-27T21:13:13.753Z,32.7
2022-11-27T21:18:15.528Z,32.7
2022-11-27T21:23:17.311Z,32.6
2022-11-27T21:28:19.394Z,32.6
2022-11-27T21:33:21.176Z,32.6
2022-11-27T21:38:23.204Z,32.6
2022-11-27T21:43:25.130Z,32.6
2022-11-27T21:48:26.926Z,32.6
2022-11-27T21:53:28.775Z,32.5
2022-11-27T21:58:30.699Z,32.5
2022-11-27T22:03:32.496Z,32.5
2022-11-27T22:08:34.521Z,32.5
2022-11-27T22:13:36.654Z,32.4
2022-11-27T22:18:38.427Z,32.4
2022-11-27T22:23:40.178Z,32.4
2022-11-27T22:28:42.273Z,32.4
2022-11-27T22:33:44.042Z,32.3
2022-11-27T22:38:45.813Z,32.2
2022-11-27T22:43:47.684Z,32.2
2022-11-27T22:48:49.434Z,32.2
2022-11-27T22:53:51.175Z,32.2
2022-11-27T22:59:06.226Z,32.2
2022-11-27T23:04:19.184Z,32.2
2022-11-27T23:09:20.945Z,32.2
2022-11-27T23:14:22.943Z,32.2
2022-11-27T23:19:24.727Z,32.2
2022-11-27T23:24:26.494Z,32.1
2022-11-27T23:29:28.370Z,32.1
2022-11-27T23:34:30.124Z,32.1
2022-11-27T23:39:31.893Z,32.1
2022-11-27T23:44:33.981Z,32.1
2022-11-27T23:49:35.715Z,32.1
2022-11-27T23:54:37.720Z,32.1
2022-11-27T23:59:39.591Z,32.1
